Time;durP1;ratioP1;P1;durP2;ratioP2;P2;SDS_P1;SDS_P2;PMS_P1;PMS_P2;Temp;Humidity;BMP_temperature;BMP_pressure;BME280_temperature;BME280_humidity;BME280_pressure;Samples;Min_cycle;Max_cycle;Signal;HPM_P1;HPM_P2
2022/07/23 00:01:03;;;;;;;10.10;3.40;;;;;19.44;97568.80;;;;111246;1247;41173;-71
2022/07/23 00:03:33;;;;;;;8.10;3.20;;;;;19.20;97574.60;;;;111319;1247;41142;-71
2022/07/23 00:06:02;;;;;;;7.70;2.80;;;;;19.20;97578.40;;;;111271;1247;41132;-72
2022/07/23 00:08:31;;;;;;;6.90;2.90;;;;;19.20;97575.40;;;;111219;1247;41231;-73
2022/07/23 00:11:01;;;;;;;6.60;2.90;;;;;19.20;97573.20;;;;111181;1247;41134;-72
2022/07/23 00:13:30;;;;;;;8.00;3.30;;;;;19.20;97568.80;;;;111358;1247;41146;-73
2022/07/23 00:16:00;;;;;;;7.70;3.20;;;;;19.20;97565.60;;;;111191;1247;42436;-72
2022/07/23 00:18:31;;;;;;;8.00;3.10;;;;;19.20;97569.00;;;;111454;1245;41591;-72
2022/07/23 00:21:02;;;;;;;8.40;3.00;;;;;19.20;97568.60;;;;111333;1247;41118;-72
2022/07/23 00:23:33;;;;;;;8.80;2.90;;;;;19.20;97568.00;;;;111046;1249;41199;-73
2022/07/23 00:26:03;;;;;;;8.60;3.10;;;;;19.20;97572.80;;;;110988;1248;41145;-72
2022/07/23 00:28:33;;;;;;;6.00;2.50;;;;;19.20;97567.40;;;;110930;1248;41971;-73
2022/07/23 00:31:03;;;;;;;7.70;3.00;;;;;19.20;97563.60;;;;111179;1247;41473;-73
2022/07/23 00:33:33;;;;;;;7.50;3.10;;;;;19.20;97563.60;;;;111203;1247;41136;-73
2022/07/23 00:36:03;;;;;;;7.40;2.70;;;;;19.18;97567.40;;;;111492;1247;41233;-73
2022/07/23 00:38:33;;;;;;;8.20;3.10;;;;;19.18;97564.00;;;;111073;1247;41300;-73
2022/07/23 00:41:03;;;;;;;9.40;3.70;;;;;19.10;97565.60;;;;111441;1246;41186;-72
2022/07/23 00:43:34;;;;;;;9.50;4.10;;;;;19.00;97561.60;;;;111199;1247;41578;-71
2022/07/23 00:46:05;;;;;;;10.70;3.60;;;;;18.90;97567.40;;;;111536;1245;41195;-72
2022/07/23 00:48:35;;;;;;;10.20;3.70;;;;;18.80;97577.80;;;;111521;1245;41616;-72
2022/07/23 00:51:04;;;;;;;9.70;3.40;;;;;18.60;97575.20;;;;111173;1247;41148;-72
2022/07/23 00:53:35;;;;;;;8.80;3.30;;;;;18.58;97571.80;;;;111519;1245;41169;-70
2022/07/23 00:56:07;;;;;;;8.30;3.50;;;;;18.46;97570.20;;;;111515;1247;41197;-72
2022/07/23 00:58:39;;;;;;;10.10;3.50;;;;;18.30;97571.00;;;;111234;1245;41132;-72
2022/07/23 01:01:12;;;;;;;9.00;3.40;;;;;18.20;97574.60;;;;111223;1247;41269;-72
2022/07/23 01:03:43;;;;;;;8.60;3.20;;;;;18.20;97569.20;;;;111208;1246;41243;-72
2022/07/23 01:06:15;;;;;;;8.30;3.30;;;;;18.18;97569.60;;;;111556;1245;41244;-72
2022/07/23 01:08:45;;;;;;;7.50;2.90;;;;;18.12;97567.40;;;;111258;1246;41173;-72
2022/07/23 01:11:15;;;;;;;7.90;3.00;;;;;18.10;97570.00;;;;111267;1247;41249;-72
2022/07/23 01:13:45;;;;;;;6.60;2.60;;;;;18.10;97568.00;;;;111456;1246;42210;-71
2022/07/23 01:16:15;;;;;;;8.00;3.00;;;;;18.10;97566.60;;;;111154;1248;41161;-72
2022/07/23 01:18:45;;;;;;;8.30;3.10;;;;;18.10;97565.60;;;;111093;1249;41308;-71
2022/07/23 01:21:18;;;;;;;11.30;3.50;;;;;18.10;97566.60;;;;111256;1245;41129;-71
2022/07/23 01:23:48;;;;;;;11.60;3.60;;;;;18.10;97565.80;;;;111216;1247;41246;-72
2022/07/23 01:26:19;;;;;;;9.10;3.50;;;;;18.10;97565.80;;;;111284;1245;41124;-71
2022/07/23 01:28:49;;;;;;;8.80;3.30;;;;;18.10;97571.60;;;;111199;1247;41266;-71
2022/07/23 01:31:19;;;;;;;7.20;2.80;;;;;18.10;97571.60;;;;111191;1247;41369;-71
2022/07/23 01:33:49;;;;;;;8.30;3.20;;;;;18.10;97571.40;;;;111297;1247;40822;-72
2022/07/23 01:36:20;;;;;;;11.00;3.70;;;;;18.10;97572.80;;;;111163;1247;41144;-72
2022/07/23 01:38:52;;;;;;;7.30;3.30;;;;;18.10;97574.60;;;;111252;1245;41143;-72
2022/07/23 01:41:23;;;;;;;8.90;3.50;;;;;18.00;97577.20;;;;111230;1247;41431;-71
2022/07/23 01:43:55;;;;;;;7.80;3.40;;;;;18.00;97573.20;;;;111309;1247;41625;-71
2022/07/23 01:46:27;;;;;;;8.70;3.10;;;;;18.00;97576.60;;;;111187;1247;42513;-72
2022/07/23 01:48:57;;;;;;;9.20;3.00;;;;;17.90;97577.40;;;;111117;1248;41146;-73
2022/07/23 01:52:01;;;;;;;8.60;3.30;;;;;17.82;97580.20;;;;111235;1247;41143;-72
2022/07/23 01:54:39;;;;;;;10.00;3.10;;;;;17.74;97580.20;;;;111261;1246;42061;-72
2022/07/23 01:57:10;;;;;;;9.30;3.20;;;;;17.70;97579.80;;;;111222;1244;41143;-72
2022/07/23 01:59:41;;;;;;;8.70;3.10;;;;;17.60;97580.80;;;;111237;1247;41236;-73
2022/07/23 02:02:11;;;;;;;;;;;;;17.56;97576.60;;;;111314;1247;41533;-72
2022/07/23 02:04:42;;;;;;;5.90;2.40;;;;;17.50;97571.00;;;;111403;1247;41275;-73
2022/07/23 02:07:12;;;;;;;7.10;2.40;;;;;17.50;97571.00;;;;111258;1247;42376;-72
2022/07/23 02:09:43;;;;;;;6.80;2.60;;;;;17.50;97567.00;;;;111464;1245;41681;-74
2022/07/23 02:12:14;;;;;;;8.00;2.90;;;;;17.50;97574.20;;;;111233;1247;41151;-72
2022/07/23 02:14:46;;;;;;;7.00;2.80;;;;;17.52;97574.60;;;;111193;1249;41259;-73
2022/07/23 02:17:17;;;;;;;8.50;2.90;;;;;17.52;97573.20;;;;111238;1247;41169;-72
2022/07/23 02:19:47;;;;;;;8.70;3.50;;;;;17.50;97579.80;;;;111135;1248;41342;-72
2022/07/23 02:22:17;;;;;;;7.20;2.80;;;;;17.50;97579.40;;;;111201;1244;41678;-72
2022/07/23 02:24:47;;;;;;;7.00;2.80;;;;;17.50;97581.80;;;;111399;1247;41258;-72
2022/07/23 02:27:18;;;;;;;9.20;3.20;;;;;17.50;97583.60;;;;111280;1245;41139;-72
2022/07/23 02:29:48;;;;;;;7.20;2.90;;;;;17.40;97582.00;;;;111280;1245;41712;-72
2022/07/23 02:32:18;;;;;;;7.10;2.60;;;;;17.40;97580.20;;;;111619;1246;41143;-72
2022/07/23 02:34:48;;;;;;;;;;;;;17.36;97578.20;;;;111266;1247;41133;-72
2022/07/23 02:37:19;;;;;;;8.00;2.70;;;;;17.30;97575.60;;;;111570;1245;41240;-72
2022/07/23 02:39:51;;;;;;;8.30;3.20;;;;;17.30;97575.80;;;;111258;1247;41148;-73
2022/07/23 02:42:23;;;;;;;9.30;3.10;;;;;17.26;97575.60;;;;111225;1247;41187;-72
2022/07/23 02:44:53;;;;;;;8.40;2.80;;;;;17.22;97578.40;;;;111259;1246;41230;-73
2022/07/23 02:47:23;;;;;;;6.30;2.50;;;;;17.22;97581.00;;;;111419;1246;41586;-73
2022/07/23 02:49:53;;;;;;;5.70;2.60;;;;;17.26;97585.00;;;;111241;1246;41262;-73
2022/07/23 02:52:23;;;;;;;5.60;2.50;;;;;17.30;97579.80;;;;111440;1244;41148;-73
2022/07/23 02:54:53;;;;;;;7.80;2.80;;;;;17.30;97583.80;;;;111228;1246;41332;-73
2022/07/23 02:57:22;;;;;;;8.00;3.40;;;;;17.26;97582.80;;;;111120;1248;41614;-73
2022/07/23 02:59:52;;;;;;;7.80;2.90;;;;;17.20;97587.80;;;;111215;1244;41614;-73
2022/07/23 03:02:21;;;;;;;5.80;2.50;;;;;17.20;97591.60;;;;111186;1247;41142;-72
2022/07/23 03:04:53;;;;;;;8.30;3.10;;;;;17.20;97590.00;;;;111217;1247;41617;-73
2022/07/23 03:07:24;;;;;;;10.60;3.20;;;;;17.20;97586.20;;;;110993;1247;41578;-72
2022/07/23 03:09:54;;;;;;;8.10;2.90;;;;;17.10;97583.20;;;;111147;1247;41158;-72
2022/07/23 03:12:25;;;;;;;7.90;3.20;;;;;17.10;97588.40;;;;111441;1245;41150;-72
2022/07/23 03:14:55;;;;;;;6.50;2.60;;;;;17.10;97590.20;;;;111098;1249;43279;-72
2022/07/23 03:17:25;;;;;;;8.60;2.90;;;;;17.10;97589.80;;;;111142;1247;41500;-72
2022/07/23 03:19:55;;;;;;;7.40;2.50;;;;;17.20;97594.80;;;;111322;1247;41194;-72
2022/07/23 03:22:24;;;;;;;7.40;2.80;;;;;17.20;97595.40;;;;111250;1247;41157;-71
2022/07/23 03:24:54;;;;;;;6.50;2.50;;;;;17.26;97596.80;;;;111192;1246;41555;-72
2022/07/23 03:27:28;;;;;;;7.80;2.90;;;;;17.30;97604.00;;;;111354;1245;41150;-72
2022/07/23 03:29:59;;;;;;;11.30;3.00;;;;;17.34;97604.60;;;;111189;1247;41482;-72
2022/07/23 03:32:29;;;;;;;9.10;2.90;;;;;17.40;97605.40;;;;111317;1247;42539;-72
2022/07/23 03:34:59;;;;;;;7.10;3.00;;;;;17.40;97604.80;;;;111254;1247;41253;-72
2022/07/23 03:37:29;;;;;;;7.60;2.40;;;;;17.46;97603.80;;;;111182;1247;42371;-71
2022/07/23 03:39:59;;;;;;;7.00;2.70;;;;;17.50;97606.80;;;;111206;1247;41181;-72
2022/07/23 03:42:30;;;;;;;6.60;2.90;;;;;17.58;97610.20;;;;111233;1247;41175;-72
2022/07/23 03:45:01;;;;;;;8.10;2.70;;;;;17.60;97611.60;;;;111206;1247;41402;-72
2022/07/23 03:47:31;;;;;;;11.20;3.00;;;;;17.60;97615.60;;;;111134;1247;41475;-72
2022/07/23 03:50:00;;;;;;;8.20;3.50;;;;;17.70;97613.20;;;;111185;1247;41091;-71
2022/07/23 03:52:29;;;;;;;8.90;3.50;;;;;17.70;97613.40;;;;111547;1245;41154;-72
2022/07/23 03:54:59;;;;;;;12.50;3.90;;;;;17.78;97611.60;;;;111212;1247;41622;-72
2022/07/23 03:57:29;;;;;;;10.90;3.20;;;;;17.80;97614.40;;;;111399;1246;41248;-73
2022/07/23 03:59:59;;;;;;;6.50;2.80;;;;;17.84;97613.00;;;;111193;1247;41257;-72
2022/07/23 04:02:28;;;;;;;7.00;2.60;;;;;17.90;97614.40;;;;111122;1247;41787;-73
2022/07/23 04:04:59;;;;;;;6.90;2.80;;;;;18.00;97612.80;;;;111217;1246;41126;-72
2022/07/23 04:07:29;;;;;;;6.40;2.50;;;;;18.10;97609.20;;;;111333;1246;41259;-73
2022/07/23 04:09:58;;;;;;;7.40;3.00;;;;;18.20;97612.20;;;;111209;1246;41132;-73
2022/07/23 04:12:28;;;;;;;6.20;2.60;;;;;18.30;97612.20;;;;111320;1247;41354;-70
2022/07/23 04:14:58;;;;;;;7.20;2.80;;;;;18.40;97617.40;;;;111191;1247;42292;-74
2022/07/23 04:17:28;;;;;;;11.20;3.40;;;;;18.60;97617.60;;;;111056;1247;41613;-75
2022/07/23 04:19:58;;;;;;;7.80;3.40;;;;;18.86;97609.80;;;;111431;1244;41686;-72
2022/07/23 04:22:31;;;;;;;8.00;3.10;;;;;19.20;97609.40;;;;111065;1248;41183;-72
2022/07/23 04:25:01;;;;;;;9.20;3.00;;;;;19.60;97610.80;;;;111497;1246;41390;-71
2022/07/23 04:27:33;;;;;;;9.50;3.50;;;;;20.00;97611.60;;;;111507;1245;41786;-72
2022/07/23 04:30:02;;;;;;;9.70;3.60;;;;;20.48;97608.20;;;;111177;1248;41249;-72
2022/07/23 04:32:31;;;;;;;8.20;3.40;;;;;20.82;97609.40;;;;111218;1247;42863;-72
2022/07/23 04:35:02;;;;;;;8.10;3.40;;;;;21.20;97607.00;;;;111132;1248;41152;-72
2022/07/23 04:37:31;;;;;;;9.70;3.60;;;;;21.60;97604.20;;;;111163;1247;41137;-71
2022/07/23 04:40:00;;;;;;;8.90;3.90;;;;;21.88;97605.00;;;;111213;1244;42349;-71
2022/07/23 04:42:29;;;;;;;8.60;3.20;;;;;22.20;97611.80;;;;111245;1247;41147;-71
2022/07/23 04:44:59;;;;;;;7.30;2.70;;;;;22.58;97616.40;;;;111206;1247;42047;-71
2022/07/23 04:47:28;;;;;;;7.70;2.90;;;;;23.00;97612.40;;;;111149;1247;41333;-72
2022/07/23 04:49:58;;;;;;;13.40;3.40;;;;;23.50;97608.40;;;;111082;1247;41155;-72
2022/07/23 04:52:27;;;;;;;7.80;3.30;;;;;24.10;97599.80;;;;111158;1248;41153;-72
2022/07/23 04:54:56;;;;;;;10.90;3.10;;;;;24.60;97585.80;;;;111238;1244;41146;-72
2022/07/23 04:57:25;;;;;;;11.40;3.30;;;;;25.10;97582.60;;;;111217;1247;41170;-73
2022/07/23 04:59:55;;;;;;;8.40;3.80;;;;;25.50;97580.80;;;;110976;1247;41133;-71
2022/07/23 05:02:24;;;;;;;11.40;3.40;;;;;25.70;97575.00;;;;111138;1247;41511;-72
2022/07/23 05:04:53;;;;;;;9.20;3.40;;;;;25.90;97573.40;;;;111214;1248;41145;-72
2022/07/23 05:07:22;;;;;;;8.40;3.20;;;;;26.20;97577.00;;;;111217;1247;41605;-72
2022/07/23 05:09:52;;;;;;;7.20;3.00;;;;;26.48;97575.00;;;;111204;1247;41715;-72
2022/07/23 05:12:21;;;;;;;8.50;2.90;;;;;26.80;97574.00;;;;111160;1248;41259;-72
2022/07/23 05:14:51;;;;;;;9.70;2.60;;;;;27.20;97571.00;;;;111144;1247;41136;-72
2022/07/23 05:17:20;;;;;;;8.90;2.90;;;;;27.66;97575.80;;;;111348;1247;42517;-72
2022/07/23 05:19:50;;;;;;;9.10;2.90;;;;;28.00;97571.80;;;;111294;1247;41317;-71
2022/07/23 05:22:24;;;;;;;10.10;3.30;;;;;28.40;97571.20;;;;111017;1249;41145;-72
2022/07/23 05:24:53;;;;;;;14.80;3.50;;;;;28.68;97570.20;;;;111537;1247;41287;-72
2022/07/23 05:27:22;;;;;;;8.70;3.80;;;;;28.90;97574.00;;;;111225;1247;41905;-72
2022/07/23 05:29:52;;;;;;;16.40;4.30;;;;;29.10;97569.00;;;;111270;1247;41238;-72
2022/07/23 05:32:22;;;;;;;14.40;3.80;;;;;29.28;97567.00;;;;111415;1245;41121;-72
2022/07/23 05:34:56;;;;;;;8.00;2.90;;;;;29.30;97568.60;;;;111506;1245;41146;-72
2022/07/23 05:37:26;;;;;;;9.20;3.50;;;;;29.50;97571.20;;;;110987;1249;41264;-72
2022/07/23 05:39:55;;;;;;;9.40;3.90;;;;;29.60;97569.80;;;;111110;1248;41156;-72
2022/07/23 05:42:24;;;;;;;8.60;3.00;;;;;29.44;97577.60;;;;111372;1246;41898;-72
2022/07/23 05:44:53;;;;;;;8.20;3.30;;;;;29.04;97585.80;;;;111013;1250;41993;-72
2022/07/23 05:47:22;;;;;;;10.20;3.00;;;;;28.62;97589.60;;;;111177;1247;41186;-72
2022/07/23 05:49:51;;;;;;;7.80;3.10;;;;;28.60;97581.80;;;;111104;1247;41137;-71
2022/07/23 05:52:44;;;;;;;11.40;3.20;;;;;29.10;97586.00;;;;111131;1248;41516;-72
2022/07/23 05:55:39;;;;;;;7.00;2.50;;;;;29.72;97586.20;;;;110935;1249;41244;-73
2022/07/23 05:58:08;;;;;;;5.10;2.00;;;;;30.30;97579.40;;;;111185;1248;41482;-72
2022/07/23 06:00:37;;;;;;;7.50;2.20;;;;;30.80;97577.00;;;;111168;1247;41259;-72
2022/07/23 06:03:06;;;;;;;5.70;2.40;;;;;31.28;97579.40;;;;111108;1248;41607;-71
2022/07/23 06:05:38;;;;;;;6.20;2.50;;;;;31.36;97579.80;;;;111156;1249;41261;-71
2022/07/23 06:08:07;;;;;;;7.10;2.50;;;;;31.34;97579.20;;;;111126;1248;41906;-72
2022/07/23 06:10:37;;;;;;;8.70;2.60;;;;;31.40;97580.00;;;;111143;1247;41254;-72
2022/07/23 06:13:06;;;;;;;7.00;2.40;;;;;31.58;97586.40;;;;111138;1247;41762;-72
2022/07/23 06:15:35;;;;;;;9.00;2.60;;;;;31.90;97586.20;;;;111214;1247;41173;-72
2022/07/23 06:18:04;;;;;;;8.10;2.30;;;;;32.48;97583.40;;;;111249;1247;41273;-74
2022/07/23 06:20:34;;;;;;;9.20;2.70;;;;;32.36;97580.80;;;;111209;1247;41156;-75
2022/07/23 06:23:04;;;;;;;6.00;2.10;;;;;32.40;97575.00;;;;111188;1247;41243;-72
2022/07/23 06:25:33;;;;;;;7.20;2.40;;;;;32.90;97579.40;;;;110868;1248;41137;-72
2022/07/23 06:28:03;;;;;;;11.40;3.00;;;;;33.40;97574.20;;;;111215;1247;41153;-72
2022/07/23 06:30:33;;;;;;;7.30;2.50;;;;;33.50;97574.00;;;;111129;1249;41153;-73
2022/07/23 06:33:04;;;;;;;9.80;2.60;;;;;33.26;97570.40;;;;111209;1247;41149;-72
2022/07/23 06:35:34;;;;;;;7.60;2.40;;;;;33.82;97569.20;;;;111144;1245;41862;-72
2022/07/23 06:38:03;;;;;;;6.40;2.30;;;;;34.50;97559.20;;;;111103;1247;41252;-72
2022/07/23 06:40:32;;;;;;;7.50;2.50;;;;;35.00;97560.40;;;;111157;1248;41183;-73
2022/07/23 06:43:02;;;;;;;9.10;3.10;;;;;35.60;97553.40;;;;111105;1247;41802;-73
2022/07/23 06:45:37;;;;;;;8.10;2.70;;;;;35.34;97549.00;;;;111221;1247;42049;-73
2022/07/23 06:48:06;;;;;;;8.90;2.90;;;;;34.96;97554.60;;;;111172;1248;41137;-74
2022/07/23 06:50:35;;;;;;;9.70;2.90;;;;;34.50;97555.00;;;;111145;1247;41142;-71
2022/07/23 06:53:04;;;;;;;8.40;3.00;;;;;34.20;97556.00;;;;111239;1247;41123;-73
2022/07/23 06:55:38;;;;;;;15.60;2.90;;;;;34.20;97554.00;;;;111253;1245;41143;-73
2022/07/23 06:58:09;;;;;;;9.30;2.60;;;;;34.36;97557.40;;;;111169;1248;41606;-74
2022/07/23 07:00:38;;;;;;;10.10;2.60;;;;;34.30;97556.80;;;;111210;1248;41268;-72
2022/07/23 07:03:07;;;;;;;9.10;2.90;;;;;34.20;97558.00;;;;111244;1247;41163;-73
2022/07/23 07:05:36;;;;;;;9.00;3.10;;;;;34.64;97558.40;;;;111260;1247;41130;-72
2022/07/23 07:08:06;;;;;;;9.40;2.80;;;;;34.92;97555.80;;;;111195;1248;41156;-72
2022/07/23 07:10:35;;;;;;;9.50;2.80;;;;;34.62;97557.00;;;;111201;1247;41360;-72
2022/07/23 07:13:04;;;;;;;10.70;3.00;;;;;34.28;97559.20;;;;111057;1248;42862;-71
2022/07/23 07:15:33;;;;;;;7.50;2.70;;;;;34.30;97561.20;;;;111211;1247;41768;-73
2022/07/23 07:18:02;;;;;;;12.30;3.40;;;;;33.40;97560.80;;;;111419;1246;41157;-72
2022/07/23 07:20:31;;;;;;;10.70;2.90;;;;;32.82;97564.20;;;;111429;1247;41809;-73
2022/07/23 07:23:00;;;;;;;8.50;2.60;;;;;32.40;97565.80;;;;111407;1246;41121;-72
2022/07/23 07:25:29;;;;;;;9.50;2.90;;;;;31.94;97576.60;;;;111315;1247;41614;-72
2022/07/23 07:27:58;;;;;;;9.30;3.40;;;;;31.90;97576.80;;;;111127;1245;42422;-72
2022/07/23 07:30:27;;;;;;;8.70;3.40;;;;;31.74;97573.20;;;;111189;1247;41134;-72
2022/07/23 07:33:01;;;;;;;10.10;3.10;;;;;31.34;97576.60;;;;111267;1246;41581;-71
2022/07/23 07:35:32;;;;;;;9.80;3.20;;;;;30.94;97574.40;;;;111424;1245;42148;-72
2022/07/23 07:38:01;;;;;;;9.70;3.00;;;;;30.70;97574.60;;;;111230;1247;41133;-71
2022/07/23 07:40:30;;;;;;;10.40;2.70;;;;;30.76;97573.60;;;;111217;1248;41416;-72
2022/07/23 07:43:03;;;;;;;6.40;2.50;;;;;30.60;97569.40;;;;111389;1247;41602;-71
2022/07/23 07:45:32;;;;;;;7.20;3.00;;;;;30.90;97573.00;;;;110745;1248;505483;-72
2022/07/23 07:48:01;;;;;;;7.90;2.50;;;;;30.80;97573.80;;;;111224;1246;41650;-71
2022/07/23 07:50:30;;;;;;;7.50;2.90;;;;;30.80;97576.60;;;;111153;1248;41147;-71
2022/07/23 07:52:59;;;;;;;7.20;2.60;;;;;31.10;97579.40;;;;111164;1249;41587;-72
2022/07/23 07:55:28;;;;;;;7.00;2.50;;;;;31.10;97576.00;;;;111155;1247;41146;-71
2022/07/23 07:57:57;;;;;;;7.80;2.80;;;;;31.30;97577.00;;;;111276;1245;41112;-71
2022/07/23 08:00:27;;;;;;;9.00;3.20;;;;;31.60;97577.40;;;;111389;1246;41133;-70
2022/07/23 08:02:56;;;;;;;8.80;3.40;;;;;31.52;97574.00;;;;111211;1247;41259;-71
2022/07/23 08:05:27;;;;;;;8.80;3.00;;;;;31.54;97571.60;;;;111454;1246;42366;-71
2022/07/23 08:07:58;;;;;;;10.70;2.50;;;;;31.40;97575.00;;;;110940;1247;41762;-71
2022/07/23 08:10:28;;;;;;;6.90;2.70;;;;;31.50;97572.00;;;;111169;1247;41601;-70
2022/07/23 08:12:57;;;;;;;;;;;;;31.90;97573.60;;;;111291;1247;41148;-70
2022/07/23 08:15:28;;;;;;;6.20;2.50;;;;;32.10;97577.40;;;;111269;1245;41229;-72
2022/07/23 08:17:58;;;;;;;6.70;2.40;;;;;32.40;97569.80;;;;111226;1247;41133;-71
2022/07/23 08:20:27;;;;;;;7.70;2.80;;;;;32.74;97573.00;;;;111247;1248;41189;-71
2022/07/23 08:23:03;;;;;;;8.10;3.10;;;;;32.98;97568.80;;;;111245;1247;41829;-72
2022/07/23 08:25:41;;;;;;;8.30;3.20;;;;;33.00;97567.60;;;;111247;1247;41894;-70
2022/07/23 08:28:12;;;;;;;11.20;3.30;;;;;33.10;97562.80;;;;111167;1245;41610;-72
2022/07/23 08:30:44;;;;;;;7.30;2.80;;;;;32.90;97565.80;;;;111250;1247;41937;-71
2022/07/23 08:33:17;;;;;;;9.30;3.00;;;;;32.88;97561.80;;;;111226;1247;41524;-71
2022/07/23 08:35:59;;;;;;;6.60;2.50;;;;;33.00;97561.40;;;;111235;1247;41624;-70
2022/07/23 08:38:28;;;;;;;6.50;2.40;;;;;33.00;97555.00;;;;110972;1247;41255;-71
2022/07/23 08:40:57;;;;;;;8.70;2.60;;;;;33.40;97554.20;;;;111267;1245;41251;-72
2022/07/23 08:43:29;;;;;;;10.60;3.00;;;;;33.78;97550.40;;;;111163;1244;41260;-72
2022/07/23 08:46:00;;;;;;;7.90;2.50;;;;;33.96;97550.00;;;;110987;1249;41293;-72
2022/07/23 08:48:32;;;;;;;7.40;2.50;;;;;33.60;97548.20;;;;110906;1250;41164;-73
2022/07/23 08:51:04;;;;;;;8.50;3.40;;;;;33.50;97548.00;;;;111185;1249;41203;-72
2022/07/23 08:53:35;;;;;;;9.20;2.90;;;;;33.72;97549.80;;;;110913;1248;41158;-72
2022/07/23 08:56:05;;;;;;;9.60;3.00;;;;;33.72;97549.20;;;;111196;1247;41283;-72
2022/07/23 08:58:34;;;;;;;9.90;3.00;;;;;34.02;97549.00;;;;111090;1247;41159;-72
2022/07/23 09:01:03;;;;;;;10.80;3.30;;;;;34.34;97548.60;;;;110929;1250;41129;-71
2022/07/23 09:03:35;;;;;;;9.80;2.70;;;;;34.14;97550.20;;;;111084;1247;42439;-71
2022/07/23 09:06:05;;;;;;;12.80;3.50;;;;;34.22;97545.20;;;;111284;1247;41142;-71
2022/07/23 09:08:38;;;;;;;10.00;3.40;;;;;34.96;97548.40;;;;111206;1247;41708;-72
2022/07/23 09:11:10;;;;;;;6.50;2.30;;;;;35.52;97549.40;;;;110989;1248;41372;-72
2022/07/23 09:13:42;;;;;;;9.90;2.70;;;;;35.64;97543.00;;;;111209;1246;41769;-71
2022/07/23 09:16:31;;;;;;;7.00;2.40;;;;;36.16;97535.20;;;;111139;1245;42348;-72
2022/07/23 09:19:02;;;;;;;9.20;3.20;;;;;37.06;97533.80;;;;110987;1247;41148;-71
2022/07/23 09:21:37;;;;;;;8.60;3.00;;;;;37.76;97530.80;;;;111163;1247;42330;-71
2022/07/23 09:24:11;;;;;;;8.50;3.30;;;;;38.14;97529.60;;;;111082;1248;41135;-72
2022/07/23 09:26:47;;;;;;;8.60;2.80;;;;;38.08;97524.40;;;;110866;1250;41288;-71
2022/07/23 09:29:18;;;;;;;11.30;3.40;;;;;38.10;97524.40;;;;110969;1250;42032;-71
2022/07/23 09:31:58;;;;;;;11.80;3.10;;;;;38.56;97523.00;;;;110960;1248;41546;-72
2022/07/23 09:34:37;;;;;;;10.10;3.20;;;;;38.06;97516.60;;;;111059;1249;41273;-72
2022/07/23 09:37:16;;;;;;;8.80;3.00;;;;;38.12;97521.20;;;;111256;1247;40779;-72
2022/07/23 09:39:47;;;;;;;10.50;3.30;;;;;38.00;97511.20;;;;111382;1245;41461;-71
2022/07/23 09:42:21;;;;;;;12.00;3.00;;;;;38.00;97513.80;;;;111222;1247;41159;-72
2022/07/23 09:44:52;;;;;;;8.90;2.60;;;;;37.74;97514.00;;;;111348;1246;41722;-71
2022/07/23 09:47:24;;;;;;;10.80;3.20;;;;;38.08;97513.20;;;;111262;1247;41497;-72
2022/07/23 09:50:00;;;;;;;7.20;2.70;;;;;38.60;97504.00;;;;111020;1247;41139;-73
2022/07/23 09:52:32;;;;;;;11.10;3.70;;;;;38.28;97500.60;;;;111210;1248;41148;-71
2022/07/23 09:55:05;;;;;;;8.80;3.40;;;;;38.18;97502.20;;;;111448;1246;41129;-71
2022/07/23 09:57:35;;;;;;;6.60;2.80;;;;;38.60;97502.80;;;;111239;1247;41157;-71
2022/07/23 10:00:06;;;;;;;10.60;3.00;;;;;38.90;97496.20;;;;111234;1247;41624;-71
2022/07/23 10:02:36;;;;;;;9.30;3.10;;;;;39.10;97491.60;;;;111213;1247;42068;-72
2022/07/23 10:05:24;;;;;;;8.20;2.70;;;;;39.70;97489.40;;;;111030;1249;42611;-71
2022/07/23 10:08:19;;;;;;;6.60;2.40;;;;;40.38;97485.80;;;;111274;1247;41149;-74
2022/07/23 10:11:06;;;;;;;11.40;2.90;;;;;41.08;97484.40;;;;111221;1247;41140;-71
2022/07/23 10:16:22;;;;;;;9.90;3.50;;;;;40.70;97482.60;;;;111183;1248;42245;-71
2022/07/23 10:18:55;;;;;;;8.40;3.20;;;;;39.90;97480.00;;;;111226;1247;41130;-70
2022/07/23 10:21:50;;;;;;;10.30;3.10;;;;;39.36;97478.20;;;;111202;1247;41671;-71
2022/07/23 10:24:38;;;;;;;9.10;3.30;;;;;39.12;97482.00;;;;111269;1247;41219;-71
2022/07/23 10:27:16;;;;;;;7.20;2.80;;;;;39.30;97480.00;;;;111220;1247;41149;-70
2022/07/23 10:30:05;;;;;;;12.10;3.00;;;;;39.64;97474.20;;;;111305;1247;41728;-70
2022/07/23 10:32:55;;;;;;;7.40;2.60;;;;;40.26;97473.20;;;;111231;1247;42174;-71
2022/07/23 10:35:38;;;;;;;11.90;3.50;;;;;40.78;97464.00;;;;111192;1247;41613;-71
2022/07/23 10:38:13;;;;;;;8.70;3.10;;;;;40.30;97458.40;;;;111246;1248;41121;-72
2022/07/23 10:41:05;;;;;;;9.90;3.30;;;;;40.06;97453.80;;;;111202;1246;41182;-71
2022/07/23 10:43:34;;;;;;;7.10;2.60;;;;;39.28;97454.80;;;;110992;1248;41625;-72
2022/07/23 10:49:28;;;;;;;8.40;3.10;;;;;39.40;97447.00;;;;111174;1247;41165;-71
2022/07/23 10:52:21;;;;;;;11.60;2.90;;;;;39.70;97448.00;;;;111308;1247;41933;-71
2022/07/23 10:54:51;;;;;;;10.60;3.70;;;;;39.62;97453.20;;;;111329;1247;41136;-70
2022/07/23 10:57:29;;;;;;;8.30;2.80;;;;;39.80;97452.20;;;;111213;1247;41125;-71
2022/07/23 11:00:11;;;;;;;7.60;3.00;;;;;40.32;97457.80;;;;111208;1247;41941;-70
2022/07/23 11:02:47;;;;;;;11.80;3.00;;;;;40.94;97448.40;;;;111289;1247;41971;-72
2022/07/23 11:05:18;;;;;;;8.60;2.50;;;;;41.36;97441.40;;;;111182;1247;41576;-71
2022/07/23 11:08:11;;;;;;;8.50;2.70;;;;;41.20;97436.20;;;;111175;1247;41526;-71
2022/07/23 11:11:14;;;;;;;8.50;3.00;;;;;41.74;97435.60;;;;111130;1248;41123;-71
2022/07/23 11:13:47;;;;;;;10.30;3.10;;;;;42.24;97432.80;;;;110592;1254;42754;-70
2022/07/23 11:16:20;;;;;;;11.00;3.20;;;;;42.30;97428.60;;;;110541;1255;41140;-69
2022/07/23 11:18:48;;;;;;;8.20;2.90;;;;;42.52;97424.00;;;;110637;1255;41269;-70
2022/07/23 11:21:23;;;;;;;6.70;3.00;;;;;42.62;97425.00;;;;110625;1253;41150;-71
2022/07/23 11:24:08;;;;;;;12.90;4.10;;;;;43.60;97416.60;;;;110629;1253;41142;-70
2022/07/23 11:26:39;;;;;;;7.20;2.80;;;;;44.52;97413.20;;;;110496;1254;41755;-71
2022/07/23 11:32:18;;;;;;;6.20;2.20;;;;;45.90;97392.40;;;;110569;1253;41451;-70
2022/07/23 11:34:49;;;;;;;7.70;2.30;;;;;46.38;97388.20;;;;110554;1253;41140;-71
2022/07/23 11:37:39;;;;;;;5.40;2.10;;;;;46.60;97384.60;;;;110611;1253;41251;-71
2022/07/23 11:40:10;;;;;;;5.00;2.10;;;;;47.26;97383.40;;;;110382;1256;42532;-70
2022/07/23 11:43:00;;;;;;;8.70;3.00;;;;;48.10;97378.20;;;;110374;1256;40897;-71
2022/07/23 11:45:33;;;;;;;8.10;2.80;;;;;48.30;97366.40;;;;110496;1255;42024;-71
2022/07/23 11:48:04;;;;;;;8.00;2.40;;;;;47.30;97369.00;;;;110596;1253;41955;-70
2022/07/23 11:50:33;;;;;;;8.80;2.80;;;;;46.64;97364.40;;;;111029;1247;41320;-72
2022/07/23 11:53:03;;;;;;;8.80;2.80;;;;;46.98;97358.80;;;;111248;1245;41608;-72
2022/07/23 11:55:32;;;;;;;18.90;10.20;;;;;45.74;97365.80;;;;110973;1250;41705;-71
2022/07/23 11:58:02;;;;;;;13.60;7.60;;;;;44.98;97366.20;;;;111204;1247;41157;-71
2022/07/23 12:00:32;;;;;;;7.70;2.60;;;;;45.36;97358.00;;;;111306;1247;41610;-72
2022/07/23 12:03:08;;;;;;;7.50;2.60;;;;;45.88;97354.60;;;;111230;1245;41592;-71
2022/07/23 12:05:38;;;;;;;7.40;2.40;;;;;46.02;97348.60;;;;111270;1247;41671;-70
2022/07/23 12:08:08;;;;;;;6.40;2.40;;;;;46.60;97342.40;;;;110919;1247;41161;-71
2022/07/23 12:10:41;;;;;;;9.10;2.80;;;;;46.64;97344.20;;;;111366;1246;42377;-71
2022/07/23 12:13:13;;;;;;;6.80;2.10;;;;;47.10;97350.80;;;;111390;1245;41600;-72
2022/07/23 12:15:48;;;;;;;6.50;2.10;;;;;47.10;97346.60;;;;111229;1247;41272;-70
2022/07/23 12:18:23;;;;;;;7.80;2.40;;;;;46.88;97337.60;;;;110971;1248;40918;-71
2022/07/23 12:20:55;;;;;;;7.00;2.00;;;;;46.70;97343.60;;;;111152;1248;41194;-71
2022/07/23 12:23:26;;;;;;;8.00;2.30;;;;;47.00;97339.40;;;;111192;1249;41705;-70
2022/07/23 12:26:01;;;;;;;7.60;2.40;;;;;46.36;97342.80;;;;111207;1248;41207;-70
2022/07/23 12:28:37;;;;;;;6.50;2.10;;;;;45.94;97335.60;;;;111341;1247;41792;-70
2022/07/23 12:31:06;;;;;;;8.20;2.30;;;;;44.74;97342.40;;;;111348;1247;41870;-70
2022/07/23 12:33:39;;;;;;;7.20;2.00;;;;;43.98;97340.80;;;;111368;1247;42214;-70
2022/07/23 12:36:09;;;;;;;6.30;2.30;;;;;43.30;97342.20;;;;111146;1247;41156;-71
2022/07/23 12:38:41;;;;;;;8.30;2.30;;;;;43.00;97334.80;;;;111225;1249;41585;-73